createdAt,value
2022-07-25T00:01:56.810Z,21.35
2022-07-25T00:06:56.589Z,21.40
2022-07-25T00:11:56.518Z,21.43
2022-07-25T00:16:57.663Z,21.59
2022-07-25T00:21:56.464Z,21.67
2022-07-25T00:26:56.398Z,21.72
2022-07-25T00:31:56.310Z,21.71
2022-07-25T00:36:56.278Z,21.64
2022-07-25T00:41:56.200Z,21.50
2022-07-25T00:46:56.209Z,21.46
2022-07-25T00:51:56.116Z,21.37
2022-07-25T00:56:56.031Z,21.35
2022-07-25T01:01:56.086Z,21.32
2022-07-25T01:06:55.938Z,21.31
2022-07-25T01:11:55.906Z,21.32
2022-07-25T01:16:55.813Z,21.34
2022-07-25T01:21:55.823Z,21.34
2022-07-25T01:26:56.818Z,21.35
2022-07-25T01:31:55.646Z,21.29
2022-07-25T01:36:55.664Z,21.28
2022-07-25T01:41:55.616Z,21.22
2022-07-25T01:46:55.492Z,21.17
2022-07-25T01:51:55.499Z,21.21
2022-07-25T01:56:55.375Z,21.19
2022-07-25T02:01:55.461Z,21.10
2022-07-25T02:06:55.279Z,21.01
2022-07-25T02:11:55.220Z,20.91
2022-07-25T02:16:55.260Z,20.77
2022-07-25T02:21:55.089Z,20.67
2022-07-25T02:26:55.048Z,20.66
2022-07-25T02:31:55.002Z,20.61
2022-07-25T02:36:54.941Z,20.62
2022-07-25T02:41:54.882Z,20.64
2022-07-25T02:46:54.839Z,20.58
2022-07-25T02:51:54.765Z,20.51
2022-07-25T02:56:54.804Z,20.51
2022-07-25T03:01:54.729Z,20.48
2022-07-25T03:06:54.601Z,20.39
2022-07-25T03:11:54.622Z,20.36
2022-07-25T03:16:54.557Z,20.35
2022-07-25T03:21:54.523Z,20.33
2022-07-25T03:26:54.382Z,20.35
2022-07-25T03:31:54.550Z,20.32
2022-07-25T03:36:54.273Z,20.28
2022-07-25T03:41:54.215Z,20.21
2022-07-25T03:46:54.166Z,20.20
2022-07-25T03:51:54.101Z,20.21
2022-07-25T03:56:54.045Z,20.23
2022-07-25T04:01:54.045Z,20.21
2022-07-25T04:06:53.945Z,20.26
2022-07-25T04:11:53.882Z,20.29
2022-07-25T04:16:53.889Z,20.39
2022-07-25T04:21:53.794Z,20.59
2022-07-25T04:26:53.735Z,20.80
2022-07-25T04:31:53.820Z,20.95
2022-07-25T04:36:53.618Z,21.16
2022-07-25T04:41:53.649Z,21.40
2022-07-25T04:46:53.594Z,21.69
2022-07-25T04:51:53.448Z,21.99
2022-07-25T04:56:53.382Z,22.24
2022-07-25T05:01:53.392Z,22.37
2022-07-25T05:06:53.403Z,22.52
2022-07-25T05:11:56.500Z,22.62
2022-07-25T05:16:53.220Z,22.76
2022-07-25T05:21:53.108Z,22.83
2022-07-25T05:26:53.070Z,23.01
2022-07-25T05:31:53.076Z,23.13
2022-07-25T05:36:52.952Z,23.39
2022-07-25T05:41:52.911Z,23.58
2022-07-25T05:46:52.910Z,23.75
2022-07-25T05:51:52.813Z,23.91
2022-07-25T05:56:52.773Z,24.09
2022-07-25T06:01:52.857Z,24.30
2022-07-25T06:06:52.782Z,24.40
2022-07-25T06:12:00.372Z,24.52
2022-07-25T06:16:53.561Z,24.64
2022-07-25T06:21:52.478Z,24.65
2022-07-25T06:26:52.431Z,24.62
2022-07-25T06:31:52.440Z,24.73
2022-07-25T06:36:52.329Z,24.68
2022-07-25T06:41:52.258Z,24.71
2022-07-25T06:46:52.262Z,24.68
2022-07-25T06:51:52.119Z,24.96
2022-07-25T06:56:52.091Z,25.30
2022-07-25T07:01:52.098Z,25.38
2022-07-25T07:06:51.979Z,25.51
2022-07-25T07:11:51.922Z,25.65
2022-07-25T07:16:51.875Z,25.82
2022-07-25T07:21:51.807Z,26.10
2022-07-25T07:26:51.788Z,26.25
2022-07-25T07:31:51.757Z,26.54
2022-07-25T07:36:51.685Z,26.80
2022-07-25T07:41:51.703Z,27.27
2022-07-25T07:46:51.692Z,27.57
2022-07-25T07:51:51.493Z,27.79
2022-07-25T07:56:51.446Z,28.29
2022-07-25T08:01:51.572Z,28.90
2022-07-25T08:06:51.402Z,29.31
2022-07-25T08:11:51.372Z,29.74
2022-07-25T08:16:51.295Z,29.95
2022-07-25T08:21:51.225Z,30.08
2022-07-25T08:26:51.135Z,30.17
2022-07-25T08:31:51.165Z,30.53
2022-07-25T08:36:51.041Z,29.78
2022-07-25T08:41:50.982Z,29.57
2022-07-25T08:46:51.056Z,29.82
2022-07-25T08:51:51.889Z,29.73
2022-07-25T08:56:50.802Z,29.67
2022-07-25T09:01:50.903Z,29.36
2022-07-25T09:06:50.814Z,30.10
2022-07-25T09:11:50.656Z,30.02
2022-07-25T09:16:53.946Z,30.42
2022-07-25T09:21:50.555Z,30.42
2022-07-25T09:26:50.560Z,30.79
2022-07-25T09:31:50.474Z,30.45
2022-07-25T09:36:50.472Z,30.88
2022-07-25T09:41:50.343Z,31.43
2022-07-25T09:46:50.506Z,31.68
2022-07-25T09:51:50.367Z,31.54
2022-07-25T09:56:50.209Z,30.62
2022-07-25T10:01:50.235Z,30.62
2022-07-25T10:06:50.101Z,30.67
2022-07-25T10:11:50.185Z,31.16
2022-07-25T10:16:50.111Z,30.24
2022-07-25T10:21:49.960Z,29.33
2022-07-25T10:26:49.946Z,29.18
2022-07-25T10:31:51.780Z,28.80
2022-07-25T10:36:49.853Z,28.07
2022-07-25T10:41:49.768Z,27.88
2022-07-25T10:46:49.923Z,27.62
2022-07-25T10:51:49.649Z,27.40
2022-07-25T10:56:50.619Z,27.62
2022-07-25T11:01:49.728Z,28.43
2022-07-25T11:06:49.528Z,28.89
2022-07-25T11:11:49.567Z,28.95
2022-07-25T11:16:49.648Z,29.53
2022-07-25T11:21:49.379Z,30.26
2022-07-25T11:26:49.546Z,30.89
2022-07-25T11:31:49.262Z,31.12
2022-07-25T11:36:49.309Z,30.82
2022-07-25T11:41:49.216Z,30.72
2022-07-25T11:46:49.117Z,30.43
2022-07-25T11:51:49.052Z,30.15
2022-07-25T11:56:49.019Z,29.65
2022-07-25T12:01:49.024Z,30.98
2022-07-25T12:06:48.928Z,31.72
2022-07-25T12:11:48.919Z,31.39
2022-07-25T12:16:48.878Z,31.09
2022-07-25T12:21:48.758Z,30.45
2022-07-25T12:26:48.875Z,30.82
2022-07-25T12:31:48.660Z,30.91
2022-07-25T12:36:48.604Z,31.38
2022-07-25T12:41:48.531Z,31.32
2022-07-25T12:46:49.676Z,31.34
2022-07-25T12:51:48.463Z,31.50
2022-07-25T12:56:48.463Z,32.33
2022-07-25T13:01:48.434Z,30.88
2022-07-25T13:06:48.323Z,31.31
2022-07-25T13:11:48.276Z,30.98
2022-07-25T13:16:48.267Z,30.86
2022-07-25T13:21:48.196Z,30.32
2022-07-25T13:26:48.089Z,30.17
2022-07-25T13:31:48.165Z,30.23
2022-07-25T13:36:48.043Z,30.65
2022-07-25T13:41:47.968Z,31.29
2022-07-25T13:46:47.978Z,31.54
2022-07-25T13:51:47.911Z,31.69
2022-07-25T13:56:47.794Z,31.65
2022-07-25T14:01:47.848Z,30.99
2022-07-25T14:06:47.725Z,29.71
2022-07-25T14:11:47.656Z,29.76
2022-07-25T14:16:47.616Z,29.70
2022-07-25T14:21:47.539Z,29.19
2022-07-25T14:26:47.498Z,29.04
2022-07-25T14:31:47.448Z,29.48
2022-07-25T14:36:47.406Z,29.33
2022-07-25T14:41:47.360Z,29.04
2022-07-25T14:46:47.345Z,29.23
2022-07-25T14:51:47.219Z,29.43
2022-07-25T14:56:47.150Z,28.93
2022-07-25T15:01:47.148Z,28.04
2022-07-25T15:06:47.073Z,27.85
2022-07-25T15:11:47.025Z,27.77
2022-07-25T15:16:47.017Z,27.36
2022-07-25T15:21:46.908Z,27.59
2022-07-25T15:26:46.898Z,27.34
2022-07-25T15:31:46.906Z,27.22
2022-07-25T15:36:46.729Z,26.92
2022-07-25T15:41:46.684Z,26.66
2022-07-25T15:46:46.698Z,26.33
2022-07-25T15:51:46.568Z,26.39
2022-07-25T15:56:46.523Z,25.98
2022-07-25T16:01:46.454Z,25.99
2022-07-25T16:06:46.428Z,25.85
2022-07-25T16:11:46.359Z,25.83
2022-07-25T16:16:46.375Z,25.77
2022-07-25T16:21:47.108Z,26.18
2022-07-25T16:26:46.313Z,26.23
2022-07-25T16:31:46.456Z,25.70
2022-07-25T16:36:46.275Z,26.12
2022-07-25T16:41:46.096Z,25.99
2022-07-25T16:46:46.018Z,26.17
2022-07-25T16:51:46.041Z,26.05
2022-07-25T16:56:48.167Z,26.01
2022-07-25T17:01:47.076Z,25.75
2022-07-25T17:06:45.858Z,25.50
2022-07-25T17:11:45.836Z,25.17
2022-07-25T17:16:45.667Z,25.09
2022-07-25T17:21:45.670Z,24.95
2022-07-25T17:26:45.558Z,24.87
2022-07-25T17:31:45.618Z,24.90
2022-07-25T17:36:45.482Z,25.00
2022-07-25T17:41:45.436Z,25.18
2022-07-25T17:46:45.412Z,25.30
2022-07-25T17:51:45.339Z,25.32
2022-07-25T17:56:45.320Z,25.36
2022-07-25T18:01:46.254Z,25.13
2022-07-25T18:06:45.195Z,24.95
2022-07-25T18:11:46.101Z,24.73
2022-07-25T18:16:45.041Z,24.71
2022-07-25T18:21:46.948Z,24.93
2022-07-25T18:26:44.901Z,24.81
2022-07-25T18:31:47.210Z,24.62
2022-07-25T18:36:44.798Z,24.64
2022-07-25T18:41:44.795Z,24.24
2022-07-25T18:46:44.833Z,24.28
2022-07-25T18:51:44.715Z,24.06
2022-07-25T18:56:44.560Z,23.94
2022-07-25T19:01:44.743Z,23.87
2022-07-25T19:06:44.552Z,23.76
2022-07-25T19:11:44.408Z,23.69
2022-07-25T19:16:45.819Z,23.43
2022-07-25T19:21:44.438Z,23.15
2022-07-25T19:26:48.447Z,23.02
2022-07-25T19:31:44.210Z,23.05
2022-07-25T19:36:44.499Z,22.85
2022-07-25T19:41:46.852Z,22.61
2022-07-25T19:46:45.159Z,22.49
2022-07-25T19:51:43.955Z,22.43
2022-07-25T19:56:43.954Z,22.07
2022-07-25T20:01:43.926Z,21.65
2022-07-25T20:06:43.811Z,21.56
2022-07-25T20:11:43.755Z,21.47
2022-07-25T20:16:43.841Z,21.53
2022-07-25T20:21:44.544Z,21.58
2022-07-25T20:26:43.609Z,21.47
2022-07-25T20:31:43.577Z,21.44
2022-07-25T20:36:43.512Z,21.44
2022-07-25T20:41:44.624Z,21.44
2022-07-25T20:46:43.481Z,21.52
2022-07-25T20:51:43.371Z,21.67
2022-07-25T20:56:43.264Z,21.77
2022-07-25T21:01:43.307Z,21.82
2022-07-25T21:06:43.122Z,21.84
2022-07-25T21:11:46.495Z,21.79
2022-07-25T21:16:43.069Z,21.68
2022-07-25T21:21:42.996Z,21.71
2022-07-25T21:26:42.914Z,21.71
2022-07-25T21:31:42.928Z,21.80
2022-07-25T21:36:42.786Z,21.72
2022-07-25T21:41:42.756Z,21.75
2022-07-25T21:46:42.676Z,21.59
2022-07-25T21:51:43.020Z,21.58
2022-07-25T21:56:42.577Z,21.50
2022-07-25T22:01:42.600Z,21.49
2022-07-25T22:06:42.459Z,21.29
2022-07-25T22:11:46.184Z,21.22
2022-07-25T22:16:42.437Z,21.27
2022-07-25T22:21:42.296Z,21.22
2022-07-25T22:26:42.240Z,21.24
2022-07-25T22:31:42.269Z,20.95
2022-07-25T22:36:42.129Z,20.85
2022-07-25T22:41:42.070Z,20.79
2022-07-25T22:46:42.034Z,20.74
2022-07-25T22:51:41.973Z,20.61
2022-07-25T22:56:41.909Z,20.52
2022-07-25T23:01:41.860Z,20.42
2022-07-25T23:06:41.794Z,20.23
2022-07-25T23:11:41.741Z,20.21
2022-07-25T23:16:41.823Z,20.20
2022-07-25T23:21:41.644Z,20.17
2022-07-25T23:26:41.587Z,20.23
2022-07-25T23:31:41.564Z,20.20
2022-07-25T23:36:41.485Z,20.29
2022-07-25T23:41:41.412Z,20.31
2022-07-25T23:46:41.550Z,20.26
2022-07-25T23:51:41.317Z,20.26
2022-07-25T23:56:41.267Z,20.20
